sensor_id;sensor_type;location;lat;lon;timestamp;temperature;humidity
10459;DHT22;5277;48.722;8.736;2023-05-20T00:00:27;11.20;99.90
10459;DHT22;5277;48.722;8.736;2023-05-20T00:02:52;11.10;99.90
10459;DHT22;5277;48.722;8.736;2023-05-20T00:05:18;11.10;99.90
10459;DHT22;5277;48.722;8.736;2023-05-20T00:07:44;11.10;99.90
10459;DHT22;5277;48.722;8.736;2023-05-20T00:10:10;11.10;99.90
10459;DHT22;5277;48.722;8.736;2023-05-20T00:12:37;11.20;99.90
10459;DHT22;5277;48.722;8.736;2023-05-20T00:15:03;11.20;99.90
10459;DHT22;5277;48.722;8.736;2023-05-20T00:17:29;11.20;99.90
10459;DHT22;5277;48.722;8.736;2023-05-20T00:19:55;11.20;99.90
10459;DHT22;5277;48.722;8.736;2023-05-20T00:22:20;11.10;99.90
10459;DHT22;5277;48.722;8.736;2023-05-20T00:24:46;11.10;99.90
10459;DHT22;5277;48.722;8.736;2023-05-20T00:27:12;11.10;99.90
10459;DHT22;5277;48.722;8.736;2023-05-20T00:29:37;11.10;99.90
10459;DHT22;5277;48.722;8.736;2023-05-20T00:32:03;11.10;99.90
10459;DHT22;5277;48.722;8.736;2023-05-20T00:34:28;11.20;99.90
10459;DHT22;5277;48.722;8.736;2023-05-20T00:36:54;11.20;99.90
10459;DHT22;5277;48.722;8.736;2023-05-20T00:39:20;11.10;99.90
10459;DHT22;5277;48.722;8.736;2023-05-20T00:41:45;11.10;99.90
10459;DHT22;5277;48.722;8.736;2023-05-20T00:44:11;11.10;99.90
10459;DHT22;5277;48.722;8.736;2023-05-20T00:46:37;11.10;99.90
10459;DHT22;5277;48.722;8.736;2023-05-20T00:49:03;11.20;99.90
10459;DHT22;5277;48.722;8.736;2023-05-20T00:51:29;11.20;99.90
10459;DHT22;5277;48.722;8.736;2023-05-20T00:53:55;11.20;99.90
10459;DHT22;5277;48.722;8.736;2023-05-20T00:56:21;11.20;99.90
10459;DHT22;5277;48.722;8.736;2023-05-20T00:58:48;11.20;99.90
10459;DHT22;5277;48.722;8.736;2023-05-20T01:01:14;11.20;99.90
10459;DHT22;5277;48.722;8.736;2023-05-20T01:03:39;11.20;99.90
10459;DHT22;5277;48.722;8.736;2023-05-20T01:06:05;11.10;99.90
10459;DHT22;5277;48.722;8.736;2023-05-20T01:08:31;11.20;99.90
10459;DHT22;5277;48.722;8.736;2023-05-20T01:11:11;11.20;99.90
10459;DHT22;5277;48.722;8.736;2023-05-20T01:13:48;11.20;99.90
10459;DHT22;5277;48.722;8.736;2023-05-20T01:16:17;11.20;99.90
10459;DHT22;5277;48.722;8.736;2023-05-20T01:18:44;11.20;99.90
10459;DHT22;5277;48.722;8.736;2023-05-20T01:21:12;11.20;99.90
10459;DHT22;5277;48.722;8.736;2023-05-20T01:23:40;11.30;99.90
10459;DHT22;5277;48.722;8.736;2023-05-20T01:26:07;11.20;99.90
10459;DHT22;5277;48.722;8.736;2023-05-20T01:28:34;11.20;99.90
10459;DHT22;5277;48.722;8.736;2023-05-20T01:31:01;11.20;99.90
10459;DHT22;5277;48.722;8.736;2023-05-20T01:33:28;11.20;99.90
10459;DHT22;5277;48.722;8.736;2023-05-20T01:35:56;11.20;99.90
10459;DHT22;5277;48.722;8.736;2023-05-20T01:38:24;11.30;99.90
10459;DHT22;5277;48.722;8.736;2023-05-20T01:40:50;11.30;99.90
10459;DHT22;5277;48.722;8.736;2023-05-20T01:43:17;11.30;99.90
10459;DHT22;5277;48.722;8.736;2023-05-20T01:45:43;11.30;99.90
10459;DHT22;5277;48.722;8.736;2023-05-20T01:48:12;11.30;99.90
10459;DHT22;5277;48.722;8.736;2023-05-20T01:50:38;11.40;99.90
10459;DHT22;5277;48.722;8.736;2023-05-20T01:53:04;11.30;99.90
10459;DHT22;5277;48.722;8.736;2023-05-20T01:55:30;11.40;99.90
10459;DHT22;5277;48.722;8.736;2023-05-20T01:57:56;11.40;99.90
10459;DHT22;5277;48.722;8.736;2023-05-20T02:00:21;11.40;99.90
10459;DHT22;5277;48.722;8.736;2023-05-20T02:02:47;11.40;99.90
10459;DHT22;5277;48.722;8.736;2023-05-20T02:05:13;11.50;99.90
10459;DHT22;5277;48.722;8.736;2023-05-20T02:07:38;11.40;99.90
10459;DHT22;5277;48.722;8.736;2023-05-20T02:10:04;11.40;99.90
10459;DHT22;5277;48.722;8.736;2023-05-20T02:12:30;11.40;99.90
10459;DHT22;5277;48.722;8.736;2023-05-20T02:14:56;11.40;99.90
10459;DHT22;5277;48.722;8.736;2023-05-20T02:17:21;11.40;99.90
10459;DHT22;5277;48.722;8.736;2023-05-20T02:19:47;11.50;99.90
10459;DHT22;5277;48.722;8.736;2023-05-20T02:22:13;11.50;99.90
10459;DHT22;5277;48.722;8.736;2023-05-20T02:24:39;11.50;99.90
10459;DHT22;5277;48.722;8.736;2023-05-20T02:27:04;11.50;99.90
10459;DHT22;5277;48.722;8.736;2023-05-20T02:29:30;11.50;99.90
10459;DHT22;5277;48.722;8.736;2023-05-20T02:31:56;11.60;99.90
10459;DHT22;5277;48.722;8.736;2023-05-20T02:34:22;11.50;99.90
10459;DHT22;5277;48.722;8.736;2023-05-20T02:36:47;11.60;99.90
10459;DHT22;5277;48.722;8.736;2023-05-20T02:39:13;11.60;99.90
10459;DHT22;5277;48.722;8.736;2023-05-20T02:41:39;11.60;99.90
10459;DHT22;5277;48.722;8.736;2023-05-20T02:44:05;11.60;99.90
10459;DHT22;5277;48.722;8.736;2023-05-20T02:46:30;11.60;99.90
10459;DHT22;5277;48.722;8.736;2023-05-20T02:48:56;11.60;99.90
10459;DHT22;5277;48.722;8.736;2023-05-20T02:51:22;11.60;99.90
10459;DHT22;5277;48.722;8.736;2023-05-20T02:53:48;11.60;99.90
10459;DHT22;5277;48.722;8.736;2023-05-20T02:56:13;11.50;99.90
10459;DHT22;5277;48.722;8.736;2023-05-20T02:58:39;11.50;99.90
10459;DHT22;5277;48.722;8.736;2023-05-20T03:01:05;11.50;99.90
10459;DHT22;5277;48.722;8.736;2023-05-20T03:03:31;11.40;99.90
10459;DHT22;5277;48.722;8.736;2023-05-20T03:05:57;11.40;99.90
10459;DHT22;5277;48.722;8.736;2023-05-20T03:08:23;11.40;99.90
10459;DHT22;5277;48.722;8.736;2023-05-20T03:10:49;11.40;99.90
10459;DHT22;5277;48.722;8.736;2023-05-20T03:13:15;11.30;99.90
10459;DHT22;5277;48.722;8.736;2023-05-20T03:15:41;11.30;99.90
10459;DHT22;5277;48.722;8.736;2023-05-20T03:18:07;11.40;99.90
10459;DHT22;5277;48.722;8.736;2023-05-20T03:20:33;11.40;99.90
10459;DHT22;5277;48.722;8.736;2023-05-20T03:23:01;11.40;99.90
10459;DHT22;5277;48.722;8.736;2023-05-20T03:25:27;11.40;99.90
10459;DHT22;5277;48.722;8.736;2023-05-20T03:27:53;11.50;99.90
10459;DHT22;5277;48.722;8.736;2023-05-20T03:30:19;11.40;99.90
10459;DHT22;5277;48.722;8.736;2023-05-20T03:32:44;11.50;99.90
10459;DHT22;5277;48.722;8.736;2023-05-20T03:35:10;11.50;99.90
10459;DHT22;5277;48.722;8.736;2023-05-20T03:37:36;11.50;99.90
10459;DHT22;5277;48.722;8.736;2023-05-20T03:40:02;11.50;99.90
10459;DHT22;5277;48.722;8.736;2023-05-20T03:42:31;11.50;99.90
10459;DHT22;5277;48.722;8.736;2023-05-20T03:44:57;11.40;99.90
10459;DHT22;5277;48.722;8.736;2023-05-20T03:47:24;11.40;99.90
10459;DHT22;5277;48.722;8.736;2023-05-20T03:49:50;11.50;99.90
10459;DHT22;5277;48.722;8.736;2023-05-20T03:52:16;11.50;99.90
10459;DHT22;5277;48.722;8.736;2023-05-20T03:54:42;11.50;99.90
10459;DHT22;5277;48.722;8.736;2023-05-20T03:57:07;11.40;99.90
10459;DHT22;5277;48.722;8.736;2023-05-20T03:59:35;11.50;99.90
10459;DHT22;5277;48.722;8.736;2023-05-20T04:02:01;11.60;99.90
10459;DHT22;5277;48.722;8.736;2023-05-20T04:04:27;11.60;99.90
10459;DHT22;5277;48.722;8.736;2023-05-20T04:06:52;11.60;99.90
10459;DHT22;5277;48.722;8.736;2023-05-20T04:09:19;11.60;99.90
10459;DHT22;5277;48.722;8.736;2023-05-20T04:11:44;11.60;99.90
10459;DHT22;5277;48.722;8.736;2023-05-20T04:14:10;11.60;99.90
10459;DHT22;5277;48.722;8.736;2023-05-20T04:16:35;11.80;99.90
10459;DHT22;5277;48.722;8.736;2023-05-20T04:19:02;11.80;99.90
10459;DHT22;5277;48.722;8.736;2023-05-20T04:21:28;11.80;99.90
10459;DHT22;5277;48.722;8.736;2023-05-20T04:23:53;11.90;99.90
10459;DHT22;5277;48.722;8.736;2023-05-20T04:26:19;11.80;99.90
10459;DHT22;5277;48.722;8.736;2023-05-20T04:28:45;11.80;99.90
10459;DHT22;5277;48.722;8.736;2023-05-20T04:31:13;11.80;99.90
10459;DHT22;5277;48.722;8.736;2023-05-20T04:33:38;11.80;99.90
10459;DHT22;5277;48.722;8.736;2023-05-20T04:36:06;11.80;99.90
10459;DHT22;5277;48.722;8.736;2023-05-20T04:38:32;11.80;99.90
10459;DHT22;5277;48.722;8.736;2023-05-20T04:40:58;11.90;99.90
10459;DHT22;5277;48.722;8.736;2023-05-20T04:43:24;11.90;99.90
10459;DHT22;5277;48.722;8.736;2023-05-20T04:45:51;11.80;99.90
10459;DHT22;5277;48.722;8.736;2023-05-20T04:48:18;11.80;99.90
10459;DHT22;5277;48.722;8.736;2023-05-20T04:50:43;11.80;99.90
10459;DHT22;5277;48.722;8.736;2023-05-20T04:53:10;11.80;99.90
10459;DHT22;5277;48.722;8.736;2023-05-20T04:55:35;11.90;99.90
10459;DHT22;5277;48.722;8.736;2023-05-20T04:58:02;12.00;99.90
10459;DHT22;5277;48.722;8.736;2023-05-20T05:00:28;12.00;99.90
10459;DHT22;5277;48.722;8.736;2023-05-20T05:02:54;12.00;99.90
10459;DHT22;5277;48.722;8.736;2023-05-20T05:05:20;12.10;99.90
10459;DHT22;5277;48.722;8.736;2023-05-20T05:07:45;12.20;99.90
10459;DHT22;5277;48.722;8.736;2023-05-20T05:10:11;12.30;99.90
10459;DHT22;5277;48.722;8.736;2023-05-20T05:12:37;12.30;99.90
10459;DHT22;5277;48.722;8.736;2023-05-20T05:15:03;12.40;99.90
10459;DHT22;5277;48.722;8.736;2023-05-20T05:17:29;12.40;99.90
10459;DHT22;5277;48.722;8.736;2023-05-20T05:19:54;12.50;99.90
10459;DHT22;5277;48.722;8.736;2023-05-20T05:22:20;12.60;99.90
10459;DHT22;5277;48.722;8.736;2023-05-20T05:24:45;12.60;99.90
10459;DHT22;5277;48.722;8.736;2023-05-20T05:27:11;12.60;99.90
10459;DHT22;5277;48.722;8.736;2023-05-20T05:29:36;12.70;99.90
10459;DHT22;5277;48.722;8.736;2023-05-20T05:32:02;12.70;99.90
10459;DHT22;5277;48.722;8.736;2023-05-20T05:34:28;12.80;99.90
10459;DHT22;5277;48.722;8.736;2023-05-20T05:36:53;12.80;99.90
10459;DHT22;5277;48.722;8.736;2023-05-20T05:39:19;12.90;99.90
10459;DHT22;5277;48.722;8.736;2023-05-20T05:41:44;13.00;99.90
10459;DHT22;5277;48.722;8.736;2023-05-20T05:44:10;13.10;99.90
10459;DHT22;5277;48.722;8.736;2023-05-20T05:46:36;13.10;99.90
10459;DHT22;5277;48.722;8.736;2023-05-20T05:49:01;13.20;99.90
10459;DHT22;5277;48.722;8.736;2023-05-20T05:51:27;13.20;99.90
10459;DHT22;5277;48.722;8.736;2023-05-20T05:53:53;13.30;99.90
10459;DHT22;5277;48.722;8.736;2023-05-20T05:56:19;13.40;99.90
10459;DHT22;5277;48.722;8.736;2023-05-20T05:58:44;13.50;99.90
10459;DHT22;5277;48.722;8.736;2023-05-20T06:01:12;13.50;99.90
10459;DHT22;5277;48.722;8.736;2023-05-20T06:03:37;13.60;99.90
10459;DHT22;5277;48.722;8.736;2023-05-20T06:06:03;13.70;99.90
10459;DHT22;5277;48.722;8.736;2023-05-20T06:08:29;13.70;99.90
10459;DHT22;5277;48.722;8.736;2023-05-20T06:10:54;13.80;99.90
10459;DHT22;5277;48.722;8.736;2023-05-20T06:13:20;13.90;99.90
10459;DHT22;5277;48.722;8.736;2023-05-20T06:15:48;13.90;99.90
10459;DHT22;5277;48.722;8.736;2023-05-20T06:18:14;14.00;99.90
10459;DHT22;5277;48.722;8.736;2023-05-20T06:20:39;14.10;99.90
10459;DHT22;5277;48.722;8.736;2023-05-20T06:23:05;14.30;99.90
10459;DHT22;5277;48.722;8.736;2023-05-20T06:25:30;14.30;99.90
10459;DHT22;5277;48.722;8.736;2023-05-20T06:27:56;14.40;99.90
10459;DHT22;5277;48.722;8.736;2023-05-20T06:30:22;14.50;99.90
10459;DHT22;5277;48.722;8.736;2023-05-20T06:32:47;14.40;99.90
10459;DHT22;5277;48.722;8.736;2023-05-20T06:35:13;14.50;99.90
10459;DHT22;5277;48.722;8.736;2023-05-20T06:37:38;14.50;99.90
10459;DHT22;5277;48.722;8.736;2023-05-20T06:40:05;14.60;99.90
10459;DHT22;5277;48.722;8.736;2023-05-20T06:42:30;14.60;99.90
10459;DHT22;5277;48.722;8.736;2023-05-20T06:44:56;14.70;99.90
10459;DHT22;5277;48.722;8.736;2023-05-20T06:47:22;14.60;99.90
10459;DHT22;5277;48.722;8.736;2023-05-20T06:49:47;14.80;99.90
10459;DHT22;5277;48.722;8.736;2023-05-20T06:52:13;14.80;99.90
10459;DHT22;5277;48.722;8.736;2023-05-20T06:54:38;14.90;99.90
10459;DHT22;5277;48.722;8.736;2023-05-20T06:57:09;15.10;99.90
10459;DHT22;5277;48.722;8.736;2023-05-20T06:59:35;15.20;99.90
10459;DHT22;5277;48.722;8.736;2023-05-20T07:02:02;15.30;99.90
10459;DHT22;5277;48.722;8.736;2023-05-20T07:04:28;15.30;99.90
10459;DHT22;5277;48.722;8.736;2023-05-20T07:06:53;15.50;99.90
10459;DHT22;5277;48.722;8.736;2023-05-20T07:09:19;15.60;99.90
10459;DHT22;5277;48.722;8.736;2023-05-20T07:11:44;15.60;99.90
10459;DHT22;5277;48.722;8.736;2023-05-20T07:14:10;15.60;99.90
10459;DHT22;5277;48.722;8.736;2023-05-20T07:16:36;15.70;99.90
10459;DHT22;5277;48.722;8.736;2023-05-20T07:19:02;15.50;99.90
10459;DHT22;5277;48.722;8.736;2023-05-20T07:21:28;15.60;99.90
10459;DHT22;5277;48.722;8.736;2023-05-20T07:23:53;15.50;99.90
10459;DHT22;5277;48.722;8.736;2023-05-20T07:26:19;15.70;99.90
10459;DHT22;5277;48.722;8.736;2023-05-20T07:28:46;15.90;99.90
10459;DHT22;5277;48.722;8.736;2023-05-20T07:31:11;16.10;99.90
10459;DHT22;5277;48.722;8.736;2023-05-20T07:33:37;16.10;99.90
10459;DHT22;5277;48.722;8.736;2023-05-20T07:36:03;16.20;99.90
10459;DHT22;5277;48.722;8.736;2023-05-20T07:38:29;16.10;99.90
10459;DHT22;5277;48.722;8.736;2023-05-20T07:40:55;16.00;99.90
10459;DHT22;5277;48.722;8.736;2023-05-20T07:43:21;15.90;99.90
10459;DHT22;5277;48.722;8.736;2023-05-20T07:45:46;15.90;99.90
10459;DHT22;5277;48.722;8.736;2023-05-20T07:48:12;16.00;99.90
10459;DHT22;5277;48.722;8.736;2023-05-20T07:50:38;16.10;99.90
10459;DHT22;5277;48.722;8.736;2023-05-20T07:53:04;16.10;99.90
10459;DHT22;5277;48.722;8.736;2023-05-20T07:55:33;16.30;99.90
10459;DHT22;5277;48.722;8.736;2023-05-20T07:57:59;16.50;99.90
10459;DHT22;5277;48.722;8.736;2023-05-20T08:00:24;16.60;99.90
10459;DHT22;5277;48.722;8.736;2023-05-20T08:02:50;16.80;99.90
10459;DHT22;5277;48.722;8.736;2023-05-20T08:05:15;16.90;99.90
10459;DHT22;5277;48.722;8.736;2023-05-20T08:07:41;17.00;99.90
10459;DHT22;5277;48.722;8.736;2023-05-20T08:10:07;17.00;99.90
10459;DHT22;5277;48.722;8.736;2023-05-20T08:12:33;17.20;99.90
10459;DHT22;5277;48.722;8.736;2023-05-20T08:14:58;17.10;99.90
10459;DHT22;5277;48.722;8.736;2023-05-20T08:17:24;17.00;99.80
10459;DHT22;5277;48.722;8.736;2023-05-20T08:19:50;17.10;99.80
10459;DHT22;5277;48.722;8.736;2023-05-20T08:22:15;17.20;99.90
10459;DHT22;5277;48.722;8.736;2023-05-20T08:24:41;17.40;99.90
10459;DHT22;5277;48.722;8.736;2023-05-20T08:27:07;17.60;99.90
10459;DHT22;5277;48.722;8.736;2023-05-20T08:29:32;17.70;99.10
10459;DHT22;5277;48.722;8.736;2023-05-20T08:31:58;17.50;99.50
10459;DHT22;5277;48.722;8.736;2023-05-20T08:34:23;17.40;99.50
10459;DHT22;5277;48.722;8.736;2023-05-20T08:36:49;17.40;99.60
10459;DHT22;5277;48.722;8.736;2023-05-20T08:39:15;17.40;99.90
10459;DHT22;5277;48.722;8.736;2023-05-20T08:41:40;17.30;99.90
10459;DHT22;5277;48.722;8.736;2023-05-20T08:44:08;17.50;99.90
10459;DHT22;5277;48.722;8.736;2023-05-20T08:46:36;17.50;99.90
10459;DHT22;5277;48.722;8.736;2023-05-20T08:49:02;17.40;99.90
10459;DHT22;5277;48.722;8.736;2023-05-20T08:51:28;17.50;99.90
10459;DHT22;5277;48.722;8.736;2023-05-20T08:53:58;17.50;99.90
10459;DHT22;5277;48.722;8.736;2023-05-20T08:56:24;17.60;99.60
10459;DHT22;5277;48.722;8.736;2023-05-20T08:58:51;17.90;99.90
10459;DHT22;5277;48.722;8.736;2023-05-20T09:01:18;18.10;99.30
10459;DHT22;5277;48.722;8.736;2023-05-20T09:03:43;18.20;99.30
10459;DHT22;5277;48.722;8.736;2023-05-20T09:06:09;18.40;98.30
10459;DHT22;5277;48.722;8.736;2023-05-20T09:08:35;18.60;98.60
10459;DHT22;5277;48.722;8.736;2023-05-20T09:11:01;18.60;98.80
10459;DHT22;5277;48.722;8.736;2023-05-20T09:13:30;18.90;98.70
10459;DHT22;5277;48.722;8.736;2023-05-20T09:15:59;19.00;98.10
10459;DHT22;5277;48.722;8.736;2023-05-20T09:18:25;19.20;98.30
10459;DHT22;5277;48.722;8.736;2023-05-20T09:20:51;19.50;96.40
10459;DHT22;5277;48.722;8.736;2023-05-20T09:23:20;19.70;96.90
10459;DHT22;5277;48.722;8.736;2023-05-20T09:25:50;20.00;96.40
10459;DHT22;5277;48.722;8.736;2023-05-20T09:28:18;19.80;96.20
10459;DHT22;5277;48.722;8.736;2023-05-20T09:30:47;19.90;95.90
10459;DHT22;5277;48.722;8.736;2023-05-20T09:33:13;19.80;95.70
10459;DHT22;5277;48.722;8.736;2023-05-20T09:35:38;19.80;95.50
10459;DHT22;5277;48.722;8.736;2023-05-20T09:38:05;19.90;95.20
10459;DHT22;5277;48.722;8.736;2023-05-20T09:40:33;20.10;95.40
10459;DHT22;5277;48.722;8.736;2023-05-20T09:43:06;20.50;94.60
10459;DHT22;5277;48.722;8.736;2023-05-20T09:45:32;20.40;94.30
10459;DHT22;5277;48.722;8.736;2023-05-20T09:47:59;20.60;94.90
10459;DHT22;5277;48.722;8.736;2023-05-20T09:50:26;20.90;94.30
10459;DHT22;5277;48.722;8.736;2023-05-20T09:52:53;21.00;94.30
10459;DHT22;5277;48.722;8.736;2023-05-20T09:55:21;21.00;93.30
10459;DHT22;5277;48.722;8.736;2023-05-20T09:57:47;20.70;93.00
10459;DHT22;5277;48.722;8.736;2023-05-20T10:00:14;20.90;93.30
10459;DHT22;5277;48.722;8.736;2023-05-20T10:02:43;21.00;93.70
10459;DHT22;5277;48.722;8.736;2023-05-20T10:05:16;21.20;93.50
10459;DHT22;5277;48.722;8.736;2023-05-20T10:08:17;21.50;92.80
10459;DHT22;5277;48.722;8.736;2023-05-20T10:13:37;22.30;91.20
10459;DHT22;5277;48.722;8.736;2023-05-20T10:19:26;22.70;91.90
10459;DHT22;5277;48.722;8.736;2023-05-20T10:21:28;22.90;90.90
10459;DHT22;5277;48.722;8.736;2023-05-20T10:24:05;22.90;91.10
10459;DHT22;5277;48.722;8.736;2023-05-20T10:26:36;22.70;90.20
10459;DHT22;5277;48.722;8.736;2023-05-20T10:29:01;22.50;90.50
10459;DHT22;5277;48.722;8.736;2023-05-20T10:31:44;22.30;91.10
10459;DHT22;5277;48.722;8.736;2023-05-20T10:34:15;23.00;91.90
10459;DHT22;5277;48.722;8.736;2023-05-20T10:37:05;23.00;90.10
10459;DHT22;5277;48.722;8.736;2023-05-20T10:39:31;23.10;90.30
10459;DHT22;5277;48.722;8.736;2023-05-20T10:42:07;22.40;89.70
10459;DHT22;5277;48.722;8.736;2023-05-20T10:44:42;22.20;90.00
10459;DHT22;5277;48.722;8.736;2023-05-20T10:47:08;21.80;90.40
10459;DHT22;5277;48.722;8.736;2023-05-20T10:49:34;22.10;91.40
10459;DHT22;5277;48.722;8.736;2023-05-20T10:52:00;22.10;90.40
10459;DHT22;5277;48.722;8.736;2023-05-20T10:54:26;21.80;90.40
10459;DHT22;5277;48.722;8.736;2023-05-20T10:56:53;21.60;92.00
10459;DHT22;5277;48.722;8.736;2023-05-20T10:59:20;21.50;92.60
10459;DHT22;5277;48.722;8.736;2023-05-20T11:01:49;21.60;91.60
10459;DHT22;5277;48.722;8.736;2023-05-20T11:04:15;21.40;91.20
10459;DHT22;5277;48.722;8.736;2023-05-20T11:06:49;21.30;93.80
10459;DHT22;5277;48.722;8.736;2023-05-20T11:09:15;21.60;92.10
10459;DHT22;5277;48.722;8.736;2023-05-20T11:11:41;21.80;91.70
10459;DHT22;5277;48.722;8.736;2023-05-20T11:14:07;22.00;91.70
10459;DHT22;5277;48.722;8.736;2023-05-20T11:16:38;21.90;91.90
10459;DHT22;5277;48.722;8.736;2023-05-20T11:19:03;21.90;92.30
10459;DHT22;5277;48.722;8.736;2023-05-20T11:21:31;22.00;92.00
10459;DHT22;5277;48.722;8.736;2023-05-20T11:23:57;22.20;91.40
10459;DHT22;5277;48.722;8.736;2023-05-20T11:26:23;22.00;90.10
10459;DHT22;5277;48.722;8.736;2023-05-20T11:28:48;22.00;90.70
10459;DHT22;5277;48.722;8.736;2023-05-20T11:31:14;22.50;92.90
10459;DHT22;5277;48.722;8.736;2023-05-20T11:33:41;23.30;90.90
10459;DHT22;5277;48.722;8.736;2023-05-20T11:36:08;24.40;88.90
10459;DHT22;5277;48.722;8.736;2023-05-20T11:38:34;25.50;85.60
10459;DHT22;5277;48.722;8.736;2023-05-20T11:40:59;26.00;80.00
10459;DHT22;5277;48.722;8.736;2023-05-20T11:43:25;26.10;79.30
10459;DHT22;5277;48.722;8.736;2023-05-20T11:45:55;26.30;80.90
10459;DHT22;5277;48.722;8.736;2023-05-20T11:48:23;25.50;78.30
10459;DHT22;5277;48.722;8.736;2023-05-20T11:50:49;25.40;78.30
10459;DHT22;5277;48.722;8.736;2023-05-20T11:53:18;25.30;80.70
10459;DHT22;5277;48.722;8.736;2023-05-20T11:55:45;25.20;77.80
10459;DHT22;5277;48.722;8.736;2023-05-20T11:58:17;25.00;77.90
10459;DHT22;5277;48.722;8.736;2023-05-20T12:00:43;24.60;78.80
10459;DHT22;5277;48.722;8.736;2023-05-20T12:03:09;24.30;80.00
10459;DHT22;5277;48.722;8.736;2023-05-20T12:05:36;23.50;81.60
10459;DHT22;5277;48.722;8.736;2023-05-20T12:08:01;23.10;86.30
10459;DHT22;5277;48.722;8.736;2023-05-20T12:10:28;22.70;83.30
10459;DHT22;5277;48.722;8.736;2023-05-20T12:12:54;22.50;89.00
10459;DHT22;5277;48.722;8.736;2023-05-20T12:15:19;22.20;86.90
10459;DHT22;5277;48.722;8.736;2023-05-20T12:17:50;22.00;90.00
10459;DHT22;5277;48.722;8.736;2023-05-20T12:20:18;21.90;90.30
10459;DHT22;5277;48.722;8.736;2023-05-20T12:22:44;21.80;89.40
10459;DHT22;5277;48.722;8.736;2023-05-20T12:25:11;21.80;92.00
10459;DHT22;5277;48.722;8.736;2023-05-20T12:27:37;21.90;92.20
10459;DHT22;5277;48.722;8.736;2023-05-20T12:30:03;21.90;91.20
10459;DHT22;5277;48.722;8.736;2023-05-20T12:32:29;22.20;91.40
10459;DHT22;5277;48.722;8.736;2023-05-20T12:34:55;22.50;90.80
10459;DHT22;5277;48.722;8.736;2023-05-20T12:37:20;22.20;87.60
10459;DHT22;5277;48.722;8.736;2023-05-20T12:39:46;22.70;92.70
10459;DHT22;5277;48.722;8.736;2023-05-20T12:42:12;22.70;89.40
10459;DHT22;5277;48.722;8.736;2023-05-20T12:44:37;23.70;86.80
10459;DHT22;5277;48.722;8.736;2023-05-20T12:47:03;24.60;85.80
10459;DHT22;5277;48.722;8.736;2023-05-20T12:49:29;25.30;81.20
10459;DHT22;5277;48.722;8.736;2023-05-20T12:51:54;25.50;82.40
10459;DHT22;5277;48.722;8.736;2023-05-20T12:54:20;25.80;81.20
10459;DHT22;5277;48.722;8.736;2023-05-20T12:56:45;25.80;79.60
10459;DHT22;5277;48.722;8.736;2023-05-20T12:59:14;25.30;80.30
10459;DHT22;5277;48.722;8.736;2023-05-20T13:01:39;24.90;81.60
10459;DHT22;5277;48.722;8.736;2023-05-20T13:04:05;24.20;79.20
10459;DHT22;5277;48.722;8.736;2023-05-20T13:06:32;23.70;80.00
10459;DHT22;5277;48.722;8.736;2023-05-20T13:08:58;23.80;82.50
10459;DHT22;5277;48.722;8.736;2023-05-20T13:11:23;23.90;85.50
10459;DHT22;5277;48.722;8.736;2023-05-20T13:13:49;23.40;82.70
10459;DHT22;5277;48.722;8.736;2023-05-20T13:16:15;23.20;87.00
10459;DHT22;5277;48.722;8.736;2023-05-20T13:18:42;22.90;84.20
10459;DHT22;5277;48.722;8.736;2023-05-20T13:21:08;22.90;82.20
10459;DHT22;5277;48.722;8.736;2023-05-20T13:23:33;22.70;84.50
10459;DHT22;5277;48.722;8.736;2023-05-20T13:26:00;22.40;85.40
10459;DHT22;5277;48.722;8.736;2023-05-20T13:28:25;22.50;88.50
10459;DHT22;5277;48.722;8.736;2023-05-20T13:30:51;22.40;88.10
10459;DHT22;5277;48.722;8.736;2023-05-20T13:33:17;22.30;88.40
10459;DHT22;5277;48.722;8.736;2023-05-20T13:35:42;22.40;90.80
10459;DHT22;5277;48.722;8.736;2023-05-20T13:38:08;22.10;86.80
10459;DHT22;5277;48.722;8.736;2023-05-20T13:40:34;22.20;87.50
10459;DHT22;5277;48.722;8.736;2023-05-20T13:43:00;22.30;88.80
10459;DHT22;5277;48.722;8.736;2023-05-20T13:45:25;22.40;89.40
10459;DHT22;5277;48.722;8.736;2023-05-20T13:47:51;22.30;89.30
10459;DHT22;5277;48.722;8.736;2023-05-20T13:50:18;22.30;88.30
10459;DHT22;5277;48.722;8.736;2023-05-20T13:52:44;22.30;86.10
10459;DHT22;5277;48.722;8.736;2023-05-20T13:55:09;22.30;85.70
10459;DHT22;5277;48.722;8.736;2023-05-20T13:57:35;22.40;86.50
10459;DHT22;5277;48.722;8.736;2023-05-20T14:00:00;22.30;90.80
10459;DHT22;5277;48.722;8.736;2023-05-20T14:02:26;22.20;88.00
10459;DHT22;5277;48.722;8.736;2023-05-20T14:04:52;22.20;91.50
10459;DHT22;5277;48.722;8.736;2023-05-20T14:07:17;22.10;91.00
10459;DHT22;5277;48.722;8.736;2023-05-20T14:09:43;22.00;91.80
10459;DHT22;5277;48.722;8.736;2023-05-20T14:12:08;21.90;93.40
10459;DHT22;5277;48.722;8.736;2023-05-20T14:14:34;21.90;93.50
10459;DHT22;5277;48.722;8.736;2023-05-20T14:16:59;21.80;90.30
10459;DHT22;5277;48.722;8.736;2023-05-20T14:19:25;21.80;89.80
10459;DHT22;5277;48.722;8.736;2023-05-20T14:21:51;21.80;91.30
10459;DHT22;5277;48.722;8.736;2023-05-20T14:24:16;21.90;92.00
10459;DHT22;5277;48.722;8.736;2023-05-20T14:26:42;21.60;88.70
10459;DHT22;5277;48.722;8.736;2023-05-20T14:29:08;21.60;89.20
10459;DHT22;5277;48.722;8.736;2023-05-20T14:31:34;21.70;90.80
10459;DHT22;5277;48.722;8.736;2023-05-20T14:34:00;21.80;91.80
10459;DHT22;5277;48.722;8.736;2023-05-20T14:36:25;21.80;91.00
10459;DHT22;5277;48.722;8.736;2023-05-20T14:38:51;21.90;90.80
10459;DHT22;5277;48.722;8.736;2023-05-20T14:41:16;21.90;92.60
10459;DHT22;5277;48.722;8.736;2023-05-20T14:43:42;21.90;92.00
10459;DHT22;5277;48.722;8.736;2023-05-20T14:46:08;21.90;92.30
10459;DHT22;5277;48.722;8.736;2023-05-20T14:48:34;21.90;90.70
10459;DHT22;5277;48.722;8.736;2023-05-20T14:51:00;22.10;90.60
10459;DHT22;5277;48.722;8.736;2023-05-20T14:53:25;22.00;90.20
10459;DHT22;5277;48.722;8.736;2023-05-20T14:55:51;22.10;92.70
10459;DHT22;5277;48.722;8.736;2023-05-20T14:58:16;22.00;91.40
10459;DHT22;5277;48.722;8.736;2023-05-20T15:00:43;22.10;92.00
10459;DHT22;5277;48.722;8.736;2023-05-20T15:03:08;22.10;90.70
10459;DHT22;5277;48.722;8.736;2023-05-20T15:05:34;22.00;90.40
10459;DHT22;5277;48.722;8.736;2023-05-20T15:08:00;22.00;89.80
10459;DHT22;5277;48.722;8.736;2023-05-20T15:10:25;21.90;90.40
10459;DHT22;5277;48.722;8.736;2023-05-20T15:12:51;22.00;90.90
10459;DHT22;5277;48.722;8.736;2023-05-20T15:15:19;22.10;91.50
10459;DHT22;5277;48.722;8.736;2023-05-20T15:17:44;22.10;90.20
10459;DHT22;5277;48.722;8.736;2023-05-20T15:20:11;22.00;89.40
10459;DHT22;5277;48.722;8.736;2023-05-20T15:22:37;22.00;91.60
10459;DHT22;5277;48.722;8.736;2023-05-20T15:25:03;21.80;90.60
10459;DHT22;5277;48.722;8.736;2023-05-20T15:27:29;21.80;90.30
10459;DHT22;5277;48.722;8.736;2023-05-20T15:29:54;21.70;91.10
10459;DHT22;5277;48.722;8.736;2023-05-20T15:32:20;21.70;92.40
10459;DHT22;5277;48.722;8.736;2023-05-20T15:34:46;21.70;92.80
10459;DHT22;5277;48.722;8.736;2023-05-20T15:37:11;21.70;92.90
10459;DHT22;5277;48.722;8.736;2023-05-20T15:39:37;21.60;93.50
10459;DHT22;5277;48.722;8.736;2023-05-20T15:42:03;21.60;94.80
10459;DHT22;5277;48.722;8.736;2023-05-20T15:44:30;21.40;92.10